Time;durP1;ratioP1;P1;durP2;ratioP2;P2;SDS_P1;SDS_P2;PMS_P1;PMS_P2;Temp;Humidity;BMP_temperature;BMP_pressure;BME280_temperature;BME280_humidity;BME280_pressure;Samples;Min_cycle;Max_cycle;Signal;HPM_P1;HPM_P2
2023/08/07 00:00:08;;;;;;;14.00;8.30;;;;;;;37.87;30.58;98536.45;108215;1254;59623;-69
2023/08/07 00:02:36;;;;;;;8.70;7.80;;;;;;;37.72;30.90;98532.75;108210;1251;59539;-70
2023/08/07 00:05:06;;;;;;;9.30;8.00;;;;;;;37.59;31.10;98529.34;108212;1251;63979;-70
2023/08/07 00:07:33;;;;;;;21.20;8.30;;;;;;;37.64;31.05;98527.88;108223;1251;61584;-70
2023/08/07 00:10:01;;;;;;;16.60;7.90;;;;;;;37.75;30.99;98526.73;108223;1251;63898;-71
2023/08/07 00:12:28;;;;;;;14.60;7.90;;;;;;;37.70;30.87;98517.16;108192;1253;59517;-70
2023/08/07 00:14:56;;;;;;;12.50;8.30;;;;;;;37.83;30.82;98511.08;108189;1252;59223;-70
2023/08/07 00:17:23;;;;;;;14.10;7.80;;;;;;;38.00;30.70;98509.23;108182;1253;64138;-71
2023/08/07 00:19:50;;;;;;;14.60;7.80;;;;;;;37.86;30.89;98504.77;108243;1251;60335;-70
2023/08/07 00:22:18;;;;;;;13.70;8.10;;;;;;;37.72;31.05;98503.44;108229;1253;63900;-69
2023/08/07 00:24:45;;;;;;;11.80;7.70;;;;;;;37.64;31.35;98502.39;108234;1253;59585;-70
2023/08/07 00:27:14;;;;;;;12.10;7.90;;;;;;;37.79;31.18;98498.11;108205;1253;59508;-70
2023/08/07 00:29:41;;;;;;;13.70;8.00;;;;;;;37.69;31.25;98492.77;108155;1251;64191;-70
2023/08/07 00:32:08;;;;;;;13.40;7.80;;;;;;;37.65;31.28;98485.63;108208;1253;61348;-70
2023/08/07 00:34:36;;;;;;;10.90;8.40;;;;;;;37.58;31.24;98479.13;108214;1251;63722;-71
2023/08/07 00:37:04;;;;;;;10.90;8.10;;;;;;;37.34;31.83;98473.83;108206;1252;59618;-71
2023/08/07 00:39:31;;;;;;;11.00;8.40;;;;;;;37.24;32.02;98473.67;108225;1251;59579;-70
2023/08/07 00:41:59;;;;;;;18.30;8.00;;;;;;;37.03;32.11;98469.30;108069;1252;62810;-71
2023/08/07 00:44:26;;;;;;;10.80;8.30;;;;;;;37.16;31.99;98472.84;108207;1251;61573;-70
2023/08/07 00:46:53;;;;;;;13.50;7.80;;;;;;;37.73;31.29;98467.94;108215;1254;63920;-70
2023/08/07 00:49:21;;;;;;;13.50;8.60;;;;;;;37.96;31.12;98463.29;108220;1254;59533;-70
2023/08/07 00:51:49;;;;;;;12.00;8.30;;;;;;;37.81;31.35;98467.73;108194;1252;59535;-69
2023/08/07 00:54:18;;;;;;;11.50;8.40;;;;;;;37.26;31.98;98467.54;108045;1251;63614;-70
2023/08/07 00:56:46;;;;;;;17.30;8.30;;;;;;;37.02;32.31;98462.27;108062;1259;61390;-71
2023/08/07 00:59:14;;;;;;;14.20;8.70;;;;;;;37.04;32.29;98461.44;108021;1257;63772;-70
2023/08/07 01:01:41;;;;;;;9.70;8.10;;;;;;;36.85;32.59;98457.04;108144;1258;59537;-71
2023/08/07 01:04:09;;;;;;;13.30;8.60;;;;;;;36.85;32.47;98455.88;108003;1251;59823;-70
2023/08/07 01:06:36;;;;;;;15.30;8.60;;;;;;;37.13;32.16;98451.63;108128;1251;64114;-70
2023/08/07 01:09:04;;;;;;;13.20;7.80;;;;;;;37.02;32.35;98449.84;108021;1251;61386;-70
2023/08/07 01:11:48;;;;;;;12.20;8.20;;;;;;;36.84;32.68;98445.17;108261;1257;63749;-70
2023/08/07 01:14:40;;;;;;;14.50;8.80;;;;;;;37.12;32.40;98445.34;108068;1251;59692;-70
2023/08/07 01:17:10;;;;;;;11.40;8.30;;;;;;;36.84;32.75;98440.73;108235;1253;59696;-70
2023/08/07 01:19:38;;;;;;;16.80;8.80;;;;;;;37.00;32.63;98439.76;108258;1253;62822;-70
2023/08/07 01:22:11;;;;;;;12.70;8.10;;;;;;;37.21;32.34;98438.88;108214;1252;60286;-71
2023/08/07 01:24:41;;;;;;;14.40;8.30;;;;;;;37.24;32.25;98433.77;108208;1257;63759;-70
2023/08/07 01:27:18;;;;;;;14.50;8.70;;;;;;;37.04;32.36;98433.89;108201;1251;59548;-70
2023/08/07 01:29:56;;;;;;;17.30;8.50;;;;;;;36.81;32.75;98433.23;108164;1257;59133;-70
2023/08/07 01:32:44;;;;;;;10.30;8.30;;;;;;;36.76;32.98;98432.27;108158;1252;64074;-69
2023/08/07 01:35:12;;;;;;;14.00;8.70;;;;;;;36.91;32.83;98427.39;108217;1257;61412;-72
2023/08/07 01:37:41;;;;;;;11.80;8.60;;;;;;;36.95;32.62;98428.59;108193;1254;63812;-70
2023/08/07 01:40:10;;;;;;;17.60;9.70;;;;;;;36.79;32.90;98428.21;108205;1259;60341;-68
2023/08/07 01:42:37;;;;;;;13.90;8.80;;;;;;;36.80;32.87;98424.51;108270;1253;60774;-72
2023/08/07 01:45:05;;;;;;;12.20;8.90;;;;;;;36.61;33.25;98419.63;108192;1258;64925;-71
2023/08/07 01:47:32;;;;;;;13.80;8.60;;;;;;;36.57;33.41;98419.66;108234;1254;61506;-70
2023/08/07 01:50:00;;;;;;;13.90;8.50;;;;;;;36.56;33.06;98414.50;107960;1257;63760;-70
2023/08/07 01:52:27;;;;;;;14.80;8.60;;;;;;;36.76;32.84;98405.89;108184;1257;60406;-69
2023/08/07 01:54:55;;;;;;;12.60;8.70;;;;;;;36.74;32.96;98405.17;108232;1253;60162;-70
2023/08/07 01:57:22;;;;;;;13.60;9.20;;;;;;;36.63;33.10;98401.56;108206;1251;65972;-67
2023/08/07 01:59:50;;;;;;;17.30;9.10;;;;;;;36.48;33.19;98401.59;108025;1258;60329;-71
2023/08/07 02:02:17;;;;;;;16.80;8.80;;;;;;;36.45;33.48;98392.69;107984;1259;62441;-70
2023/08/07 02:04:45;;;;;;;11.60;8.80;;;;;;;36.54;33.37;98385.59;108002;1256;60311;-70
2023/08/07 02:07:12;;;;;;;15.80;9.20;;;;;;;36.63;33.06;98379.89;108145;1252;60650;-70
2023/08/07 02:09:39;;;;;;;11.40;9.10;;;;;;;36.51;33.36;98368.77;107998;1251;63647;-70
2023/08/07 02:12:08;;;;;;;16.20;9.80;;;;;;;36.21;33.81;98358.61;108197;1254;61368;-69
2023/08/07 02:14:36;;;;;;;11.50;8.90;;;;;;;36.24;33.65;98351.00;108250;1253;64249;-69
2023/08/07 02:17:03;;;;;;;18.50;8.90;;;;;;;36.20;33.95;98353.83;108047;1254;60572;-68
2023/08/07 02:19:31;;;;;;;12.70;9.00;;;;;;;36.04;34.24;98350.62;108269;1251;60414;-71
2023/08/07 02:21:59;;;;;;;14.40;9.10;;;;;;;36.22;33.77;98351.42;108294;1256;63757;-71
2023/08/07 02:24:26;;;;;;;23.10;9.60;;;;;;;36.48;33.32;98360.25;108144;1257;61342;-70
2023/08/07 02:26:54;;;;;;;11.30;9.30;;;;;;;36.42;33.43;98365.16;108194;1256;62501;-69
2023/08/07 02:29:22;;;;;;;15.40;8.70;;;;;;;36.34;33.54;98363.27;108198;1255;60348;-71
2023/08/07 02:31:50;;;;;;;13.60;9.10;;;;;;;36.20;33.97;98363.64;108222;1252;60423;-71
2023/08/07 02:34:17;;;;;;;13.80;7.80;;;;;;;36.13;33.97;98372.31;108021;1251;63694;-71
2023/08/07 02:36:45;;;;;;;16.30;9.10;;;;;;;35.72;34.54;98385.40;108199;1257;61264;-70
2023/08/07 02:39:13;;;;;;;14.10;8.90;;;;;;;36.10;33.96;98386.81;108152;1252;63853;-70
2023/08/07 02:41:40;;;;;;;11.20;8.50;;;;;;;36.03;34.22;98386.38;108115;1254;60373;-72
2023/08/07 02:44:08;;;;;;;17.80;8.90;;;;;;;35.94;34.36;98393.40;108095;1251;60146;-70
2023/08/07 02:46:38;;;;;;;11.10;8.50;;;;;;;35.87;34.40;98391.70;108132;1251;64965;-70
2023/08/07 02:49:05;;;;;;;11.90;9.00;;;;;;;36.27;33.82;98379.19;108131;1252;60373;-70
2023/08/07 02:51:33;;;;;;;14.40;9.70;;;;;;;36.32;33.68;98371.54;108203;1254;62524;-71
2023/08/07 02:54:00;;;;;;;13.70;8.90;;;;;;;36.20;33.98;98364.09;108146;1251;60489;-70
2023/08/07 02:56:27;;;;;;;15.20;9.20;;;;;;;35.90;34.29;98361.10;108170;1251;60312;-70
2023/08/07 02:58:58;;;;;;;12.80;9.20;;;;;;;35.88;34.35;98359.60;108159;1256;63966;-71
2023/08/07 03:01:27;;;;;;;11.60;9.20;;;;;;;36.01;34.42;98369.92;108046;1251;60559;-71
2023/08/07 03:03:55;;;;;;;15.50;8.80;;;;;;;36.06;34.27;98378.39;108221;1256;63183;-70
2023/08/07 03:06:22;;;;;;;14.20;8.40;;;;;;;36.07;34.32;98381.48;108154;1254;60321;-71
2023/08/07 03:08:50;;;;;;;13.80;9.70;;;;;;;35.95;34.67;98393.27;108133;1251;60322;-71
2023/08/07 03:11:17;;;;;;;11.00;9.20;;;;;;;36.19;34.27;98387.96;108120;1257;63690;-70
2023/08/07 03:13:44;;;;;;;12.90;9.40;;;;;;;36.07;34.40;98388.77;108034;1253;60552;-70
2023/08/07 03:16:12;;;;;;;16.80;9.70;;;;;;;36.01;34.56;98386.37;108197;1256;63026;-70
2023/08/07 03:18:40;;;;;;;17.00;9.50;;;;;;;36.20;34.47;98382.33;107914;1251;59608;-70
2023/08/07 03:21:07;;;;;;;15.70;9.50;;;;;;;36.52;34.00;98372.77;108135;1251;60160;-70
2023/08/07 03:23:34;;;;;;;14.20;9.10;;;;;;;36.89;33.50;98370.86;108094;1251;64948;-71
2023/08/07 03:26:07;;;;;;;18.90;9.00;;;;;;;36.83;33.46;98367.89;108010;1257;61271;-70
2023/08/07 03:28:48;;;;;;;17.10;9.40;;;;;;;36.48;34.11;98371.39;108183;1258;63896;-71
2023/08/07 03:31:16;;;;;;;15.30;9.60;;;;;;;36.20;34.56;98377.73;108020;1257;61096;-70
2023/08/07 03:33:44;;;;;;;15.30;9.50;;;;;;;36.37;34.26;98362.77;107961;1252;60313;-70
2023/08/07 03:36:12;;;;;;;11.90;9.20;;;;;;;36.18;34.78;98351.67;108092;1251;65112;-72
2023/08/07 03:38:40;;;;;;;12.30;9.60;;;;;;;35.88;35.29;98354.78;108103;1251;61413;-70
2023/08/07 03:41:07;;;;;;;14.90;11.80;;;;;;;36.09;35.02;98352.14;107961;1256;63707;-70
2023/08/07 03:43:35;;;;;;;20.20;11.50;;;;;;;36.26;34.84;98360.11;108056;1251;59269;-70
2023/08/07 03:46:02;;;;;;;25.90;11.90;;;;;;;36.13;34.94;98359.33;108080;1251;60421;-70
2023/08/07 03:48:31;;;;;;;14.20;11.20;;;;;;;36.06;35.42;98361.80;108134;1251;64962;-71
2023/08/07 03:51:09;;;;;;;21.10;11.60;;;;;;;36.31;35.26;98362.20;108150;1251;60079;-70
2023/08/07 04:04:51;;;;;;;18.70;11.50;;;;;;;34.39;38.61;98354.36;105569;1282;604674;-70
2023/08/07 04:07:18;;;;;;;17.90;10.70;;;;;;;35.96;35.88;98352.65;107556;1257;208158;-71
2023/08/07 04:09:46;;;;;;;21.80;11.10;;;;;;;36.22;35.49;98346.59;107763;1262;59326;-70
2023/08/07 04:12:13;;;;;;;13.00;10.20;;;;;;;36.16;35.65;98346.07;107866;1256;62098;-70
2023/08/07 04:14:41;;;;;;;23.60;11.60;;;;;;;35.59;36.55;98342.85;107907;1257;60108;-71
2023/08/07 04:17:08;;;;;;;17.00;11.60;;;;;;;35.69;36.55;98340.41;107789;1261;63729;-71
2023/08/07 04:19:35;;;;;;;21.40;11.10;;;;;;;36.06;35.96;98331.60;107879;1257;59234;-70
2023/08/07 04:22:03;;;;;;;22.70;11.40;;;;;;;35.93;36.19;98331.75;107811;1257;59279;-70
2023/08/07 04:24:32;;;;;;;18.10;10.60;;;;;;;35.98;36.12;98331.73;107797;1257;63416;-70
2023/08/07 04:27:00;;;;;;;17.20;10.70;;;;;;;36.40;35.45;98329.48;107862;1257;60106;-72
2023/08/07 04:29:27;;;;;;;24.10;11.60;;;;;;;36.79;34.83;98326.17;107802;1257;64213;-71
2023/08/07 04:31:55;;;;;;;15.70;10.90;;;;;;;36.62;35.00;98328.27;107710;1257;59159;-71
2023/08/07 04:34:22;;;;;;;16.60;10.30;;;;;;;36.80;34.61;98330.54;107700;1257;59586;-71
2023/08/07 04:36:53;;;;;;;15.80;10.70;;;;;;;36.86;34.47;98326.92;107772;1257;64262;-71
2023/08/07 04:39:21;;;;;;;17.20;11.60;;;;;;;36.61;34.91;98325.71;107746;1257;61363;-71
2023/08/07 04:41:50;;;;;;;17.80;11.20;;;;;;;36.78;34.74;98326.08;107796;1257;64275;-71
2023/08/07 04:44:17;;;;;;;17.50;11.50;;;;;;;36.68;34.89;98322.50;107772;1256;59656;-70
2023/08/07 04:46:44;;;;;;;20.70;12.10;;;;;;;36.73;34.79;98314.73;107832;1257;59835;-70
2023/08/07 04:49:12;;;;;;;18.60;11.80;;;;;;;36.92;34.66;98313.32;107799;1257;64162;-71
2023/08/07 04:51:39;;;;;;;17.50;10.80;;;;;;;37.08;34.50;98304.17;107736;1257;60264;-71
2023/08/07 04:54:06;;;;;;;21.40;11.90;;;;;;;37.25;34.04;98300.68;107755;1257;63741;-70
2023/08/07 04:56:34;;;;;;;19.00;12.10;;;;;;;37.15;34.27;98302.26;107754;1259;59132;-69
2023/08/07 04:59:01;;;;;;;17.90;11.40;;;;;;;37.26;34.08;98299.52;107831;1257;59526;-70
2023/08/07 05:01:29;;;;;;;20.90;11.70;;;;;;;37.39;33.91;98294.29;107861;1257;62887;-70
2023/08/07 05:03:57;;;;;;;18.90;10.40;;;;;;;37.45;33.82;98291.60;107779;1257;61352;-70
2023/08/07 05:06:25;;;;;;;24.30;11.90;;;;;;;37.53;33.80;98288.02;107861;1257;63749;-72
2023/08/07 05:08:52;;;;;;;16.10;11.60;;;;;;;37.73;33.46;98290.02;107843;1256;59020;-72
2023/08/07 05:11:20;;;;;;;17.30;10.90;;;;;;;37.94;33.26;98285.30;107756;1256;59720;-73
2023/08/07 05:13:47;;;;;;;19.90;11.30;;;;;;;38.18;32.84;98281.09;107788;1256;64091;-71
2023/08/07 05:16:15;;;;;;;15.80;10.20;;;;;;;38.40;32.62;98279.90;107883;1260;61368;-72
2023/08/07 05:18:44;;;;;;;18.30;10.30;;;;;;;38.47;32.33;98277.44;108125;1254;63815;-71
2023/08/07 05:21:14;;;;;;;16.30;10.40;;;;;;;38.31;32.59;98275.31;108028;1254;59516;-71
2023/08/07 05:23:41;;;;;;;13.90;10.00;;;;;;;38.53;32.39;98281.14;108085;1254;60212;-71
2023/08/07 05:26:08;;;;;;;15.10;10.10;;;;;;;38.62;32.18;98283.20;108040;1254;62858;-70
2023/08/07 05:28:36;;;;;;;19.90;10.70;;;;;;;38.86;31.84;98279.60;108051;1253;61435;-71
2023/08/07 05:31:03;;;;;;;16.70;10.40;;;;;;;38.87;31.83;98276.19;108254;1253;63733;-72
2023/08/07 05:33:30;;;;;;;15.30;10.00;;;;;;;38.92;31.93;98282.09;108083;1253;59621;-71
2023/08/07 05:35:58;;;;;;;18.50;10.20;;;;;;;38.69;32.18;98281.48;108151;1254;59615;-71
2023/08/07 05:38:25;;;;;;;15.70;10.70;;;;;;;38.60;32.41;98279.45;108047;1254;62847;-71
2023/08/07 05:40:52;;;;;;;19.10;10.70;;;;;;;38.44;32.46;98272.89;108022;1254;61367;-69
2023/08/07 05:43:20;;;;;;;16.50;11.60;;;;;;;38.30;32.74;98269.23;108007;1254;63754;-71
2023/08/07 05:45:48;;;;;;;20.10;11.50;;;;;;;38.36;32.79;98267.31;108023;1254;59144;-71
2023/08/07 05:48:16;;;;;;;25.80;10.80;;;;;;;38.51;32.63;98274.00;108077;1254;59954;-71
2023/08/07 05:50:44;;;;;;;24.20;12.00;;;;;;;38.18;33.08;98276.64;108008;1253;62800;-71
2023/08/07 05:53:11;;;;;;;19.60;10.90;;;;;;;37.89;33.58;98279.53;108031;1253;60433;-70
2023/08/07 05:55:42;;;;;;;26.70;11.40;;;;;;;37.98;33.52;98274.80;108017;1254;62754;-71
2023/08/07 05:58:09;;;;;;;;;;;;;;;38.15;33.36;98270.28;107969;1259;59605;-71
2023/08/07 06:00:37;;;;;;;27.40;11.50;;;;;;;38.43;32.97;98270.04;107973;1257;59617;-72
2023/08/07 06:03:04;;;;;;;25.20;11.70;;;;;;;38.49;33.04;98269.11;107985;1254;62881;-70
2023/08/07 06:05:31;;;;;;;20.20;11.80;;;;;;;38.77;32.77;98267.95;107941;1254;61323;-72
2023/08/07 06:07:59;;;;;;;18.80;11.70;;;;;;;38.61;32.79;98259.41;107936;1254;62537;-72
2023/08/07 06:10:27;;;;;;;17.40;11.10;;;;;;;38.71;32.80;98268.99;107892;1254;59554;-71
2023/08/07 06:12:54;;;;;;;15.00;11.60;;;;;;;38.47;33.14;98280.73;107965;1256;59609;-74
2023/08/07 06:15:21;;;;;;;16.60;11.20;;;;;;;38.17;33.50;98276.20;107952;1256;64254;-73
2023/08/07 06:17:51;;;;;;;22.80;11.80;;;;;;;38.40;33.38;98273.17;107953;1254;61503;-71
2023/08/07 06:20:18;;;;;;;20.70;11.90;;;;;;;38.38;33.35;98271.48;107975;1257;63846;-73
2023/08/07 06:22:45;;;;;;;16.30;11.70;;;;;;;38.25;33.92;98272.81;107944;1259;59278;-71
2023/08/07 06:25:13;;;;;;;20.40;12.00;;;;;;;37.98;34.39;98288.05;108037;1259;59176;-72
2023/08/07 06:27:40;;;;;;;27.60;11.80;;;;;;;38.62;33.78;98284.90;108036;1258;64115;-71
2023/08/07 06:30:08;;;;;;;26.20;12.40;;;;;;;39.37;32.56;98280.25;108150;1258;60187;-72
2023/08/07 06:32:36;;;;;;;17.90;10.80;;;;;;;39.58;32.34;98273.21;108058;1256;63108;-72
2023/08/07 06:35:04;;;;;;;17.50;11.40;;;;;;;39.65;32.59;98265.93;108091;1259;59554;-70
2023/08/07 06:37:32;;;;;;;18.00;10.40;;;;;;;39.41;32.84;98268.48;108131;1254;59619;-72
2023/08/07 06:39:59;;;;;;;18.80;10.30;;;;;;;39.66;32.29;98255.84;108123;1253;62977;-71
2023/08/07 06:42:27;;;;;;;21.70;10.40;;;;;;;39.85;32.13;98227.23;108099;1254;60165;-72
2023/08/07 06:44:54;;;;;;;21.70;12.10;;;;;;;39.37;33.07;98222.62;108050;1254;62426;-72
2023/08/07 06:47:21;;;;;;;15.30;9.40;;;;;;;38.87;34.00;98231.89;107859;1254;59617;-71
2023/08/07 06:49:49;;;;;;;16.10;9.90;;;;;;;38.86;34.03;98249.29;108007;1253;59489;-72
2023/08/07 06:52:16;;;;;;;16.60;9.80;;;;;;;38.93;34.00;98250.27;107905;1253;62979;-73
2023/08/07 06:54:44;;;;;;;18.10;8.90;;;;;;;39.04;33.82;98246.77;108050;1253;60836;-72
2023/08/07 06:57:11;;;;;;;12.50;7.10;;;;;;;38.76;33.93;98235.49;108083;1254;62963;-72
2023/08/07 06:59:38;;;;;;;12.20;7.80;;;;;;;38.65;34.09;98239.25;108050;1254;59636;-71
2023/08/07 07:02:06;;;;;;;18.10;8.30;;;;;;;39.42;33.19;98250.95;108046;1254;59620;-73
2023/08/07 07:04:33;;;;;;;12.10;7.30;;;;;;;39.74;32.46;98258.61;108063;1254;64145;-73
2023/08/07 07:07:01;;;;;;;16.20;7.90;;;;;;;39.89;32.39;98249.40;108104;1253;61341;-71
2023/08/07 07:09:28;;;;;;;14.80;7.90;;;;;;;40.39;31.81;98238.50;108106;1258;63768;-71
2023/08/07 07:11:56;;;;;;;14.00;8.60;;;;;;;40.40;31.74;98246.17;108075;1254;59589;-71
2023/08/07 07:14:24;;;;;;;14.50;8.10;;;;;;;39.60;32.49;98247.34;108077;1254;59548;-71
2023/08/07 07:16:51;;;;;;;23.70;8.60;;;;;;;39.25;33.19;98241.09;108098;1254;64281;-72
2023/08/07 07:19:18;;;;;;;13.40;9.40;;;;;;;38.85;33.81;98232.13;108047;1254;61375;-72
2023/08/07 07:21:46;;;;;;;18.50;10.10;;;;;;;38.95;33.82;98227.86;108074;1254;63706;-72
2023/08/07 07:24:13;;;;;;;17.60;10.60;;;;;;;39.31;33.59;98239.09;108019;1254;59665;-72
2023/08/07 07:26:41;;;;;;;16.40;13.20;;;;;;;39.58;32.91;98238.45;108044;1258;59551;-72
2023/08/07 07:29:08;;;;;;;20.70;14.50;;;;;;;39.91;32.54;98239.90;108107;1254;62894;-72
2023/08/07 07:31:35;;;;;;;20.10;14.60;;;;;;;39.95;32.36;98246.97;108153;1254;61908;-70
2023/08/07 07:34:03;;;;;;;22.30;12.50;;;;;;;39.69;32.81;98266.10;108210;1254;62485;-71
2023/08/07 07:36:30;;;;;;;17.50;12.40;;;;;;;39.03;33.66;98282.66;108002;1254;59704;-69
2023/08/07 07:38:58;;;;;;;21.90;12.20;;;;;;;38.24;35.05;98291.00;108072;1254;59525;-71
2023/08/07 07:41:27;;;;;;;16.10;10.70;;;;;;;37.92;35.89;98282.11;108083;1254;64198;-70
2023/08/07 07:43:56;;;;;;;22.80;11.80;;;;;;;37.56;36.72;98260.02;108078;1255;61381;-70
2023/08/07 07:46:25;;;;;;;18.50;12.30;;;;;;;37.51;37.24;98270.56;108147;1254;62480;-71
2023/08/07 07:48:53;;;;;;;20.90;12.70;;;;;;;37.82;37.63;98270.55;108094;1255;59637;-71
2023/08/07 07:51:20;;;;;;;15.90;13.00;;;;;;;37.61;38.25;98268.56;108093;1254;59023;-72
2023/08/07 07:53:48;;;;;;;19.60;13.90;;;;;;;37.78;38.51;98267.92;108068;1254;64364;-72
2023/08/07 07:56:35;;;;;;;18.20;15.10;;;;;;;37.88;38.27;98280.63;108050;1254;61340;-75
2023/08/07 07:59:02;;;;;;;18.70;12.50;;;;;;;38.00;38.42;98288.91;108013;1254;63738;-71
2023/08/07 08:01:30;;;;;;;20.90;13.80;;;;;;;37.84;38.32;98287.20;108038;1257;59617;-73
2023/08/07 08:03:57;;;;;;;21.40;13.90;;;;;;;38.35;38.36;98296.84;108156;1254;59708;-72
2023/08/07 08:06:25;;;;;;;16.50;12.20;;;;;;;39.22;37.50;98299.81;108064;1254;64184;-72
2023/08/07 08:08:52;;;;;;;18.60;11.80;;;;;;;39.19;36.55;98297.64;108083;1254;61319;-72
2023/08/07 08:11:19;;;;;;;13.60;10.80;;;;;;;38.79;36.62;98284.33;108061;1254;62510;-70
2023/08/07 08:13:47;;;;;;;15.70;11.40;;;;;;;38.83;37.20;98265.98;108035;1256;60266;-73
2023/08/07 08:16:16;;;;;;;12.70;9.40;;;;;;;39.08;36.86;98248.77;108096;1254;60454;-71
2023/08/07 08:18:43;;;;;;;13.50;8.50;;;;;;;39.36;35.28;98243.86;108096;1254;65011;-71
2023/08/07 08:21:11;;;;;;;15.80;9.60;;;;;;;39.43;34.84;98243.08;108030;1253;61858;-72
2023/08/07 08:23:38;;;;;;;15.50;7.90;;;;;;;39.62;34.68;98242.88;108050;1255;64982;-71
2023/08/07 08:26:05;;;;;;;11.00;8.00;;;;;;;39.52;34.21;98257.25;108005;1256;60523;-71
2023/08/07 08:28:33;;;;;;;13.00;8.10;;;;;;;39.96;33.42;98273.69;107905;1257;60152;-73
2023/08/07 08:31:00;;;;;;;12.30;7.20;;;;;;;40.35;32.85;98280.74;107954;1257;65082;-72
2023/08/07 08:33:28;;;;;;;11.20;7.00;;;;;;;40.91;32.02;98286.79;108027;1256;60785;-72
2023/08/07 08:35:55;;;;;;;11.30;7.30;;;;;;;40.85;31.73;98275.58;107938;1256;62471;-72
2023/08/07 08:38:23;;;;;;;10.40;7.00;;;;;;;40.38;32.21;98269.73;107929;1255;60921;-71
2023/08/07 08:40:51;;;;;;;16.60;7.10;;;;;;;39.75;32.88;98262.45;107905;1255;60411;-71
2023/08/07 08:43:19;;;;;;;15.30;7.00;;;;;;;39.32;33.36;98284.91;108057;1254;64910;-72
2023/08/07 08:45:46;;;;;;;12.80;7.00;;;;;;;39.23;33.78;98303.27;107734;1262;72685;-71
2023/08/07 08:48:18;;;;;;;10.60;6.90;;;;;;;39.83;33.21;98297.79;107818;1254;62662;-71
2023/08/07 08:50:45;;;;;;;14.20;6.70;;;;;;;40.14;32.51;98289.89;108040;1257;60914;-74
2023/08/07 08:53:12;;;;;;;9.70;6.90;;;;;;;40.17;32.24;98271.23;107998;1254;59285;-72
2023/08/07 08:55:42;;;;;;;11.10;7.40;;;;;;;40.42;32.01;98258.88;108041;1254;64969;-72
2023/08/07 08:58:10;;;;;;;12.00;7.30;;;;;;;39.91;32.73;98266.55;108011;1254;61396;-71
2023/08/07 09:00:37;;;;;;;10.90;7.40;;;;;;;39.52;33.28;98277.57;108071;1257;63761;-72
2023/08/07 09:03:05;;;;;;;11.80;7.70;;;;;;;39.43;33.25;98274.69;108060;1255;60444;-72
2023/08/07 09:05:32;;;;;;;13.00;8.40;;;;;;;39.36;33.52;98275.08;108018;1254;60457;-73
2023/08/07 09:08:00;;;;;;;12.80;7.10;;;;;;;39.02;33.86;98276.42;108029;1254;63674;-72
2023/08/07 09:10:27;;;;;;;11.20;7.10;;;;;;;38.91;34.11;98281.13;108026;1254;60586;-73
2023/08/07 09:13:03;;;;;;;14.20;6.70;;;;;;;39.09;33.40;98279.21;108065;1254;62457;-73
2023/08/07 09:15:32;;;;;;;10.50;6.80;;;;;;;38.82;33.86;98278.86;108067;1254;59581;-73
2023/08/07 09:18:00;;;;;;;11.60;7.90;;;;;;;39.31;33.54;98283.23;107978;1254;60364;-73
2023/08/07 09:20:28;;;;;;;15.30;8.10;;;;;;;40.40;31.81;98272.73;107847;1254;74696;-73
2023/08/07 09:22:56;;;;;;;10.40;7.60;;;;;;;40.02;31.58;98272.63;108012;1254;61903;-72
2023/08/07 09:25:29;;;;;;;11.10;8.00;;;;;;;39.91;31.81;98273.84;108085;1254;62687;-71
2023/08/07 09:27:57;;;;;;;9.80;7.30;;;;;;;39.66;31.73;98258.38;108114;1255;59156;-73
2023/08/07 09:30:28;;;;;;;8.60;6.90;;;;;;;40.50;30.98;98249.63;108114;1254;60428;-71
2023/08/07 09:32:57;;;;;;;11.00;5.80;;;;;;;40.79;30.35;98247.51;108083;1258;63723;-70
2023/08/07 09:35:25;;;;;;;11.90;5.60;;;;;;;40.49;30.21;98258.94;108054;1254;61462;-74
2023/08/07 09:37:52;;;;;;;7.90;5.00;;;;;;;40.14;30.40;98247.42;108023;1254;62436;-71
2023/08/07 09:40:20;;;;;;;11.50;5.00;;;;;;;40.27;30.15;98248.76;108020;1257;60426;-72
2023/08/07 09:42:51;;;;;;;12.70;4.10;;;;;;;39.27;30.24;98277.59;108007;1254;60325;-72
2023/08/07 09:45:22;;;;;;;11.40;4.40;;;;;;;39.03;28.76;98282.02;108068;1254;64972;-72
2023/08/07 09:48:00;;;;;;;11.60;4.80;;;;;;;39.21;29.61;98298.88;108119;1254;60095;-71
2023/08/07 09:50:28;;;;;;;11.30;4.60;;;;;;;38.39;30.10;98318.39;107993;1253;64593;-73
2023/08/07 09:52:57;;;;;;;13.30;4.50;;;;;;;37.74;31.32;98359.84;108099;1256;60423;-72
2023/08/07 09:55:25;;;;;;;9.50;5.00;;;;;;;36.84;34.50;98364.32;108021;1254;60375;-73
2023/08/07 09:57:53;;;;;;;9.70;6.10;;;;;;;36.07;37.31;98350.79;108084;1254;64217;-73
2023/08/07 10:00:21;;;;;;;14.50;6.80;;;;;;;35.83;38.78;98335.52;108050;1254;63404;-72
2023/08/07 10:02:49;;;;;;;11.30;7.60;;;;;;;35.66;39.82;98343.57;108029;1254;62450;-72
2023/08/07 10:05:17;;;;;;;15.60;9.40;;;;;;;35.91;40.46;98353.21;108100;1258;59134;-73
2023/08/07 10:07:44;;;;;;;13.50;8.90;;;;;;;35.85;40.94;98365.13;108085;1253;60428;-72
2023/08/07 10:10:12;;;;;;;17.40;10.50;;;;;;;34.96;42.43;98368.39;108023;1254;63869;-72
2023/08/07 10:12:40;;;;;;;13.10;10.20;;;;;;;34.98;42.60;98360.87;107991;1254;60130;-72
2023/08/07 10:15:08;;;;;;;17.70;11.50;;;;;;;34.91;43.54;98356.81;107828;1254;63732;-72
2023/08/07 10:17:35;;;;;;;18.40;11.60;;;;;;;34.90;43.27;98362.88;108012;1254;60296;-73
2023/08/07 10:20:04;;;;;;;18.90;13.60;;;;;;;35.04;43.46;98365.59;107971;1254;60476;-72
2023/08/07 10:22:32;;;;;;;17.40;13.00;;;;;;;35.15;43.73;98381.67;107865;1254;64990;-71
2023/08/07 10:25:01;;;;;;;20.80;13.40;;;;;;;35.12;43.76;98396.96;107829;1254;63961;-73
2023/08/07 10:27:33;;;;;;;17.90;12.20;;;;;;;34.87;43.87;98405.50;108063;1256;62482;-73
2023/08/07 10:30:02;;;;;;;18.40;11.60;;;;;;;34.76;43.63;98397.40;108036;1254;60415;-70
2023/08/07 10:32:29;;;;;;;16.80;12.10;;;;;;;35.70;42.17;98394.72;108118;1254;60338;-70
2023/08/07 10:34:56;;;;;;;14.70;11.40;;;;;;;36.13;41.05;98385.95;107846;1254;63777;-71
2023/08/07 10:37:43;;;;;;;12.20;10.30;;;;;;;36.67;39.54;98380.18;108006;1254;60482;-72
2023/08/07 10:40:12;;;;;;;17.00;9.50;;;;;;;37.12;37.78;98387.71;107889;1255;62516;-69
2023/08/07 10:42:59;;;;;;;11.10;9.00;;;;;;;36.93;36.97;98387.39;108090;1254;60405;-71
2023/08/07 10:45:27;;;;;;;13.30;8.60;;;;;;;36.79;36.37;98396.39;107981;1254;60518;-75
2023/08/07 10:48:01;;;;;;;11.30;8.40;;;;;;;36.56;36.29;98408.59;108031;1254;64579;-71
2023/08/07 10:50:32;;;;;;;20.10;9.00;;;;;;;36.49;35.99;98414.96;108001;1254;61329;-71
2023/08/07 10:53:01;;;;;;;11.80;9.30;;;;;;;36.65;36.12;98421.31;107963;1254;74104;-71
2023/08/07 10:55:44;;;;;;;12.40;8.80;;;;;;;37.19;35.43;98423.83;108047;1254;60440;-72
2023/08/07 10:58:41;;;;;;;13.70;9.60;;;;;;;37.51;34.42;98434.31;108028;1254;60460;-72
2023/08/07 11:01:21;;;;;;;12.20;8.60;;;;;;;37.39;34.00;98445.65;107917;1254;64922;-72
2023/08/07 11:03:56;;;;;;;12.60;7.60;;;;;;;37.40;33.84;98448.68;108055;1259;60259;-72
2023/08/07 11:06:26;;;;;;;16.80;8.30;;;;;;;37.01;34.01;98465.10;107940;1254;72121;-72
2023/08/07 11:08:54;;;;;;;15.10;8.50;;;;;;;37.01;33.99;98475.41;107980;1256;60549;-71
2023/08/07 11:11:21;;;;;;;13.20;8.10;;;;;;;36.69;34.36;98480.38;107851;1254;60274;-71
2023/08/07 11:13:49;;;;;;;12.40;8.50;;;;;;;36.29;34.84;98487.99;108024;1254;65036;-72
2023/08/07 11:16:17;;;;;;;14.80;8.60;;;;;;;36.40;34.73;98492.34;107983;1254;60417;-71
2023/08/07 11:18:45;;;;;;;11.90;8.90;;;;;;;36.50;34.83;98497.94;108016;1254;63800;-72
2023/08/07 11:21:12;;;;;;;16.50;8.50;;;;;;;36.57;34.58;98505.34;107778;1257;59174;-71
2023/08/07 11:23:40;;;;;;;11.50;7.70;;;;;;;36.39;34.69;98509.49;108030;1254;60347;-72
2023/08/07 11:26:08;;;;;;;12.30;7.70;;;;;;;36.19;34.98;98517.84;107981;1254;64961;-72
2023/08/07 11:28:36;;;;;;;11.00;7.80;;;;;;;35.80;35.57;98527.42;107944;1254;60237;-72
2023/08/07 11:31:03;;;;;;;11.20;6.90;;;;;;;35.52;35.85;98533.27;107983;1254;62457;-72